Terminal Aerodrome Forecast
Issued by NWS

Home | Current Version | Previous Version | Text Only | Print | Product List | Glossary On
Versions: 1 2 3 4 5 6 7 8 9 10 11 12 13 14 15 16 17 18
284
FTUS43 KMQT 081137 AAA
TAFCMX
TAF AMD
KCMX 081137Z 0812/0912 35015G23KT 2SM -SHSN BLSN OVC010
     FM082200 34014G22KT 1SM -SHSN BLSN OVC010=

USA.gov is the U.S. government's official web portal to all federal, state and local government web resources and services.